Time;durP1;ratioP1;P1;durP2;ratioP2;P2;SDS_P1;SDS_P2;PMS_P1;PMS_P2;Temp;Humidity;BMP_temperature;BMP_pressure;BME280_temperature;BME280_humidity;BME280_pressure;Samples;Min_cycle;Max_cycle;Signal;HPM_P1;HPM_P2
2024/04/05 00:00:45;;;;;;;;;;;;;;;;;;5003274;28;5157;-63
2024/04/05 00:03:10;;;;;;;;;;;;;;;;;;5004250;28;5181;-63
2024/04/05 00:05:36;;;;;;;;;;;;;;;;;;5006791;28;3483;-62
2024/04/05 00:08:01;;;;;;;;;;;;;;;;;;5004343;28;5115;-62
2024/04/05 00:10:26;;;;;;;;;;;;;;;;;;5006602;28;5254;-62
2024/04/05 00:12:52;;;;;;;;;;;;;;;;;;5002686;28;5195;-63
2024/04/05 00:15:17;;;;;;;;;;;;;;;;;;5004281;28;4571;-62
2024/04/05 00:17:46;;;;;;;;;;;;;;;;;;5004693;28;5093;-62
2024/04/05 00:20:12;;;;;;;;;;;;;;;;;;4986277;28;3642;-62
2024/04/05 00:22:37;;;;;;;;;;;;;;;;;;5005474;28;5047;-63
2024/04/05 00:25:03;;;;;;;;;;;;;;;;;;5003999;28;5021;-63
2024/04/05 00:27:28;;;;;;;;;;;;;;;;;;5004305;28;5168;-63
2024/04/05 00:29:54;;;;;;;;;;;;;;;;;;5005082;28;4564;-62
2024/04/05 00:32:20;;;;;;;;;;;;;;;;;;5005437;28;3517;-61
2024/04/05 00:34:45;;;;;;;;;;;;;;;;;;5005990;28;4628;-62
2024/04/05 00:37:11;;;;;;;;;;;;;;;;;;5005063;28;5334;-61
2024/04/05 00:39:36;;;;;;;;;;;;;;;;;;5003672;28;5051;-62
2024/04/05 00:42:01;;;;;;;;;;;;;;;;;;5001877;28;5143;-61
2024/04/05 00:44:27;;;;;;;;;;;;;;;;;;4995705;28;3486;-62
2024/04/05 00:46:52;;;;;;;;;;;;;;;;;;5005269;28;4496;-62
2024/04/05 00:49:17;;;;;;;;;;;;;;;;;;5005166;28;4503;-62
2024/04/05 00:51:43;;;;;;;;;;;;;;;;;;5005906;28;5084;-62
2024/04/05 00:54:08;;;;;;;;;;;;;;;;;;5006556;28;4982;-62
2024/04/05 00:56:33;;;;;;;;;;;;;;;;;;4988529;28;3509;-61
2024/04/05 00:58:59;;;;;;;;;;;;;;;;;;5002419;28;5101;-61
2024/04/05 01:01:24;;;;;;;;;;;;;;;;;;5003984;28;5056;-62
2024/04/05 01:03:50;;;;;;;;;;;;;;;;;;5004785;28;4625;-62
2024/04/05 01:06:15;;;;;;;;;;;;;;;;;;5006932;28;5244;-62
2024/04/05 01:08:41;;;;;;;;;;;;;;;;;;5004953;28;3483;-62
2024/04/05 01:11:06;;;;;;;;;;;;;;;;;;5005402;28;4968;-62
2024/04/05 01:13:31;;;;;;;;;;;;;;;;;;5006229;28;4705;-62
2024/04/05 01:15:57;;;;;;;;;;;;;;;;;;5006594;28;5043;-62
2024/04/05 01:18:22;;;;;;;;;;;;;;;;;;5003645;28;5224;-62
2024/04/05 01:20:50;;;;;;;;;;;;;;;;;;5005220;28;5009;-62
2024/04/05 01:23:16;;;;;;;;;;;;;;;;;;5006452;28;3307;-61
2024/04/05 01:25:41;;;;;;;;;;;;;;;;;;4990870;28;4941;-62
2024/04/05 01:28:11;;;;;;;;;;;;;;;;;;5005677;28;4759;-62
2024/04/05 01:30:36;;;;;;;;;;;;;;;;;;5004890;28;4708;-62
2024/04/05 01:33:01;;;;;;;;;;;;;;;;;;5001857;28;5203;-60
2024/04/05 01:35:27;;;;;;;;;;;;;;;;;;5012897;28;3577;-62
2024/04/05 01:37:52;;;;;;;;;;;;;;;;;;5006414;28;5086;-62
2024/04/05 01:40:18;;;;;;;;;;;;;;;;;;5003556;28;5068;-63
2024/04/05 01:42:43;;;;;;;;;;;;;;;;;;5003761;28;4561;-62
2024/04/05 01:45:08;;;;;;;;;;;;;;;;;;5006322;28;4556;-62
2024/04/05 01:47:34;;;;;;;;;;;;;;;;;;5009971;28;1126;-62
2024/04/05 01:50:00;;;;;;;;;;;;;;;;;;5006901;28;5146;-62
2024/04/05 01:52:25;;;;;;;;;;;;;;;;;;5005487;28;5418;-63
2024/04/05 01:54:51;;;;;;;;;;;;;;;;;;5005485;28;5192;-63
2024/04/05 01:57:17;;;;;;;;;;;;;;;;;;5002511;28;5096;-62
2024/04/05 01:59:45;;;;;;;;;;;;;;;;;;5001622;28;5294;-62
2024/04/05 02:02:11;;;;;;;;;;;;;;;;;;5003138;28;3506;-62
2024/04/05 02:04:36;;;;;;;;;;;;;;;;;;5006882;28;4768;-62
2024/04/05 02:07:01;;;;;;;;;;;;;;;;;;5000320;28;5203;-61
2024/04/05 02:09:27;;;;;;;;;;;;;;;;;;5005053;28;4722;-62
2024/04/05 02:11:52;;;;;;;;;;;;;;;;;;5006480;28;4599;-62
2024/04/05 02:14:17;;;;;;;;;;;;;;;;;;5009032;28;3485;-62
2024/04/05 02:16:43;;;;;;;;;;;;;;;;;;5009091;28;5108;-63
2024/04/05 02:19:08;;;;;;;;;;;;;;;;;;5009330;28;5148;-61
2024/04/05 02:21:33;;;;;;;;;;;;;;;;;;5005312;28;5203;-62
2024/04/05 02:23:59;;;;;;;;;;;;;;;;;;5006927;28;4552;-62
2024/04/05 02:26:24;;;;;;;;;;;;;;;;;;5006416;28;3463;-61
2024/04/05 02:28:49;;;;;;;;;;;;;;;;;;5005386;28;5661;-61
2024/04/05 02:31:15;;;;;;;;;;;;;;;;;;5006271;28;5176;-62
2024/04/05 02:33:40;;;;;;;;;;;;;;;;;;5007065;28;5244;-62
2024/04/05 02:36:05;;;;;;;;;;;;;;;;;;5005537;28;4539;-62
2024/04/05 02:38:31;;;;;;;;;;;;;;;;;;5008385;28;3503;-63
2024/04/05 02:40:56;;;;;;;;;;;;;;;;;;5002563;28;5035;-62
2024/04/05 02:43:22;;;;;;;;;;;;;;;;;;5009763;28;5475;-62
2024/04/05 02:45:47;;;;;;;;;;;;;;;;;;5007503;28;4537;-62
2024/04/05 02:48:12;;;;;;;;;;;;;;;;;;5007704;28;4533;-62
2024/04/05 02:50:38;;;;;;;;;;;;;;;;;;5007556;28;3431;-62
2024/04/05 02:53:03;;;;;;;;;;;;;;;;;;5009998;28;4411;-63
2024/04/05 02:55:29;;;;;;;;;;;;;;;;;;5010260;28;5456;-63
2024/04/05 02:57:54;;;;;;;;;;;;;;;;;;5010059;28;5182;-63
2024/04/05 03:00:19;;;;;;;;;;;;;;;;;;5008173;28;5143;-62
2024/04/05 03:02:45;;;;;;;;;;;;;;;;;;5007980;28;5173;-60
2024/04/05 03:05:11;;;;;;;;;;;;;;;;;;5008496;28;3591;-62
2024/04/05 03:07:36;;;;;;;;;;;;;;;;;;5003319;28;4678;-60
2024/04/05 03:10:02;;;;;;;;;;;;;;;;;;5008406;28;4478;-62
2024/04/05 03:12:27;;;;;;;;;;;;;;;;;;5007403;28;5204;-62
2024/04/05 03:14:53;;;;;;;;;;;;;;;;;;5007060;28;4733;-62
2024/04/05 03:17:18;;;;;;;;;;;;;;;;;;5008342;28;3476;-62
2024/04/05 03:19:43;;;;;;;;;;;;;;;;;;5008354;28;5015;-62
2024/04/05 03:22:09;;;;;;;;;;;;;;;;;;5006635;28;5246;-62
2024/04/05 03:24:34;;;;;;;;;;;;;;;;;;5006889;28;4824;-62
2024/04/05 03:27:00;;;;;;;;;;;;;;;;;;5007617;28;5248;-63
2024/04/05 03:29:25;;;;;;;;;;;;;;;;;;5009018;28;3335;-62
2024/04/05 03:31:50;;;;;;;;;;;;;;;;;;5005978;28;5153;-62
2024/04/05 03:34:17;;;;;;;;;;;;;;;;;;5005816;28;4724;-62
2024/04/05 03:36:42;;;;;;;;;;;;;;;;;;5002719;28;4756;-63
2024/04/05 03:39:08;;;;;;;;;;;;;;;;;;4999296;28;4541;-63
2024/04/05 03:41:33;;;;;;;;;;;;;;;;;;5003025;28;3444;-62
2024/04/05 03:43:59;;;;;;;;;;;;;;;;;;5004307;28;5091;-62
2024/04/05 03:46:24;;;;;;;;;;;;;;;;;;5007385;28;5025;-62
2024/04/05 03:48:50;;;;;;;;;;;;;;;;;;5006628;28;4666;-63
2024/04/05 03:51:15;;;;;;;;;;;;;;;;;;5005072;28;4610;-63
2024/04/05 03:53:40;;;;;;;;;;;;;;;;;;5007645;28;3388;-63
2024/04/05 03:56:06;;;;;;;;;;;;;;;;;;5005759;28;4909;-63
2024/04/05 03:58:31;;;;;;;;;;;;;;;;;;5006411;28;5072;-61
2024/04/05 04:00:57;;;;;;;;;;;;;;;;;;5007243;28;4948;-62
2024/04/05 04:03:22;;;;;;;;;;;;;;;;;;5006072;28;5069;-63
2024/04/05 04:05:47;;;;;;;;;;;;;;;;;;4988063;28;5168;-63
2024/04/05 04:08:13;;;;;;;;;;;;;;;;;;5006477;28;3799;-62
2024/04/05 04:10:39;;;;;;;;;;;;;;;;;;5004928;28;5148;-62
2024/04/05 04:13:04;;;;;;;;;;;;;;;;;;5006664;28;5267;-63
2024/04/05 04:15:30;;;;;;;;;;;;;;;;;;5001737;28;4538;-63
2024/04/05 04:17:55;;;;;;;;;;;;;;;;;;5003153;28;4741;-62
2024/04/05 04:20:21;;;;;;;;;;;;;;;;;;5006028;28;3553;-63
2024/04/05 04:22:46;;;;;;;;;;;;;;;;;;5008078;28;4668;-63
2024/04/05 04:25:11;;;;;;;;;;;;;;;;;;5007908;28;4897;-64
2024/04/05 04:27:37;;;;;;;;;;;;;;;;;;5001293;28;5245;-62
2024/04/05 04:30:04;;;;;;;;;;;;;;;;;;5006788;28;4522;-62
2024/04/05 04:32:29;;;;;;;;;;;;;;;;;;5006559;28;3537;-64
2024/04/05 04:34:55;;;;;;;;;;;;;;;;;;4988148;28;5143;-63
2024/04/05 04:37:20;;;;;;;;;;;;;;;;;;5006848;28;5224;-62
2024/04/05 04:39:46;;;;;;;;;;;;;;;;;;5002708;28;5133;-63
2024/04/05 04:42:12;;;;;;;;;;;;;;;;;;5006906;28;4930;-64
2024/04/05 04:44:37;;;;;;;;;;;;;;;;;;4988483;28;3345;-62
2024/04/05 04:47:04;;;;;;;;;;;;;;;;;;5004851;28;4955;-62
2024/04/05 04:49:29;;;;;;;;;;;;;;;;;;5005871;28;5067;-62
2024/04/05 04:51:55;;;;;;;;;;;;;;;;;;5002145;28;5273;-61
2024/04/05 04:54:21;;;;;;;;;;;;;;;;;;4998705;28;5221;-59
2024/04/05 04:56:46;;;;;;;;;;;;;;;;;;5006474;28;4819;-59
2024/04/05 04:59:12;;;;;;;;;;;;;;;;;;5004711;28;3432;-59
2024/04/05 05:01:37;;;;;;;;;;;;;;;;;;5000953;28;4541;-59
2024/04/05 05:04:03;;;;;;;;;;;;;;;;;;4988909;28;5132;-59
2024/04/05 05:06:28;;;;;;;;;;;;;;;;;;4989833;28;4550;-60
2024/04/05 05:08:54;;;;;;;;;;;;;;;;;;5002495;28;5068;-60
2024/04/05 05:11:19;;;;;;;;;;;;;;;;;;5005540;28;3672;-59
2024/04/05 05:13:46;;;;;;;;;;;;;;;;;;5007494;28;4558;-60
2024/04/05 05:16:11;;;;;;;;;;;;;;;;;;5005977;28;5008;-60
2024/04/05 05:18:36;;;;;;;;;;;;;;;;;;5006407;28;5110;-61
2024/04/05 05:21:02;;;;;;;;;;;;;;;;;;5008013;28;5225;-60
2024/04/05 05:23:27;;;;;;;;;;;;;;;;;;5007755;28;1157;-60
2024/04/05 05:25:55;;;;;;;;;;;;;;;;;;5007104;28;4446;-60
2024/04/05 05:28:20;;;;;;;;;;;;;;;;;;5007283;28;6004;-60
2024/04/05 05:30:46;;;;;;;;;;;;;;;;;;5006393;28;5119;-60
2024/04/05 05:33:11;;;;;;;;;;;;;;;;;;5006476;28;5075;-60
2024/04/05 05:35:37;;;;;;;;;;;;;;;;;;5009470;28;3262;-60
2024/04/05 05:38:02;;;;;;;;;;;;;;;;;;4991896;28;4617;-60
2024/04/05 05:40:28;;;;;;;;;;;;;;;;;;5001319;28;5194;-60
2024/04/05 05:42:53;;;;;;;;;;;;;;;;;;5006198;28;5306;-60
2024/04/05 05:45:21;;;;;;;;;;;;;;;;;;5008466;28;5026;-60
2024/04/05 05:47:52;;;;;;;;;;;;;;;;;;5011335;28;4565;-60
2024/04/05 05:50:17;;;;;;;;;;;;;;;;;;5009980;28;1375;-60
2024/04/05 05:52:43;;;;;;;;;;;;;;;;;;5011165;28;4542;-60
2024/04/05 05:55:08;;;;;;;;;;;;;;;;;;5010818;28;5133;-60
2024/04/05 05:57:33;;;;;;;;;;;;;;;;;;5011060;28;5922;-60
2024/04/05 06:00:00;;;;;;;;;;;;;;;;;;5010101;28;5124;-60
2024/04/05 06:02:26;;;;;;;;;;;;;;;;;;5010751;28;3435;-60
2024/04/05 06:04:51;;;;;;;;;;;;;;;;;;5010405;28;4780;-60
2024/04/05 06:07:16;;;;;;;;;;;;;;;;;;5011103;28;5064;-60
2024/04/05 06:09:49;;;;;;;;;;;;;;;;;;5009010;28;4984;-60
2024/04/05 06:12:14;;;;;;;;;;;;;;;;;;5010430;28;4488;-60
2024/04/05 06:14:40;;;;;;;;;;;;;;;;;;5010032;28;3368;-60
2024/04/05 06:17:06;;;;;;;;;;;;;;;;;;5013472;28;4910;-60
2024/04/05 06:19:31;;;;;;;;;;;;;;;;;;5009563;28;4688;-60
2024/04/05 06:21:56;;;;;;;;;;;;;;;;;;5009750;28;5177;-60
2024/04/05 06:24:22;;;;;;;;;;;;;;;;;;5010100;28;4470;-60
2024/04/05 06:26:47;;;;;;;;;;;;;;;;;;5010357;28;5535;-60
2024/04/05 06:29:13;;;;;;;;;;;;;;;;;;5008793;28;3245;-59
2024/04/05 06:31:38;;;;;;;;;;;;;;;;;;4986309;28;5147;-60
2024/04/05 06:34:04;;;;;;;;;;;;;;;;;;4993267;28;4791;-59
2024/04/05 06:36:30;;;;;;;;;;;;;;;;;;5009464;28;5010;-60
2024/04/05 06:38:56;;;;;;;;;;;;;;;;;;5008331;28;4733;-60
2024/04/05 06:41:21;;;;;;;;;;;;;;;;;;5008875;28;1911;-60
2024/04/05 06:43:47;;;;;;;;;;;;;;;;;;5009202;28;5453;-60
2024/04/05 06:46:12;;;;;;;;;;;;;;;;;;5010365;28;5034;-60
2024/04/05 06:48:38;;;;;;;;;;;;;;;;;;5009298;28;4614;-60
2024/04/05 06:51:11;;;;;;;;;;;;;;;;;;5008621;28;4503;-60
2024/04/05 06:53:36;;;;;;;;;;;;;;;;;;5010466;28;1131;-59
2024/04/05 06:56:02;;;;;;;;;;;;;;;;;;5007750;28;5006;-60
2024/04/05 06:58:27;;;;;;;;;;;;;;;;;;5005819;28;5959;-61
2024/04/05 07:00:52;;;;;;;;;;;;;;;;;;5006901;28;5153;-61
2024/04/05 07:03:19;;;;;;;;;;;;;;;;;;5008514;28;5151;-61
2024/04/05 07:05:44;;;;;;;;;;;;;;;;;;5011473;28;4565;-60
2024/04/05 07:08:10;;;;;;;;;;;;;;;;;;5014970;28;3382;-60
2024/04/05 07:10:36;;;;;;;;;;;;;;;;;;5009210;28;4494;-60
2024/04/05 07:13:01;;;;;;;;;;;;;;;;;;5008430;28;5040;-60
2024/04/05 07:15:27;;;;;;;;;;;;;;;;;;5009915;28;5066;-60
2024/04/05 07:17:52;;;;;;;;;;;;;;;;;;5008388;28;5186;-61
2024/04/05 07:20:24;;;;;;;;;;;;;;;;;;4992183;28;3736;-60
2024/04/05 07:22:52;;;;;;;;;;;;;;;;;;5009575;28;5064;-60
2024/04/05 07:25:17;;;;;;;;;;;;;;;;;;5010025;28;5084;-60
2024/04/05 07:27:43;;;;;;;;;;;;;;;;;;5009806;28;5547;-60
2024/04/05 07:30:09;;;;;;;;;;;;;;;;;;5004585;28;5158;-60
2024/04/05 07:32:35;;;;;;;;;;;;;;;;;;5007065;28;3659;-60
2024/04/05 07:35:00;;;;;;;;;;;;;;;;;;5008511;28;5084;-59
2024/04/05 07:37:26;;;;;;;;;;;;;;;;;;5009019;28;5107;-59
2024/04/05 07:39:51;;;;;;;;;;;;;;;;;;5004269;28;5044;-60
2024/04/05 07:42:19;;;;;;;;;;;;;;;;;;5008854;28;5193;-59
2024/04/05 07:44:45;;;;;;;;;;;;;;;;;;5007925;28;5064;-59
2024/04/05 07:47:10;;;;;;;;;;;;;;;;;;5009946;28;1113;-59
2024/04/05 07:49:35;;;;;;;;;;;;;;;;;;5007987;28;5122;-60
2024/04/05 07:52:01;;;;;;;;;;;;;;;;;;5006856;28;5554;-60
2024/04/05 07:54:26;;;;;;;;;;;;;;;;;;4994280;28;5231;-61
2024/04/05 07:56:52;;;;;;;;;;;;;;;;;;5009009;28;5128;-60
2024/04/05 07:59:17;;;;;;;;;;;;;;;;;;5008607;28;3479;-61
2024/04/05 08:01:44;;;;;;;;;;;;;;;;;;5006647;28;4618;-61
2024/04/05 08:04:09;;;;;;;;;;;;;;;;;;5008931;28;4989;-60
2024/04/05 08:06:34;;;;;;;;;;;;;;;;;;5005711;28;4650;-60
2024/04/05 08:09:00;;;;;;;;;;;;;;;;;;5009765;28;4678;-60
2024/04/05 08:11:25;;;;;;;;;;;;;;;;;;5009524;28;1067;-61
2024/04/05 08:13:51;;;;;;;;;;;;;;;;;;5011887;28;5008;-61
2024/04/05 08:16:17;;;;;;;;;;;;;;;;;;5008481;28;5013;-61
2024/04/05 08:18:43;;;;;;;;;;;;;;;;;;5006127;28;4622;-61
2024/04/05 08:21:08;;;;;;;;;;;;;;;;;;5009937;28;5360;-61
2024/04/05 08:23:33;;;;;;;;;;;;;;;;;;5007909;28;2366;-60
2024/04/05 08:26:00;;;;;;;;;;;;;;;;;;5008369;28;5041;-61
2024/04/05 08:28:25;;;;;;;;;;;;;;;;;;5008252;28;5445;-61
2024/04/05 08:30:51;;;;;;;;;;;;;;;;;;5006320;28;5353;-61
2024/04/05 08:33:16;;;;;;;;;;;;;;;;;;5008359;28;4547;-61
2024/04/05 08:35:50;;;;;;;;;;;;;;;;;;5008141;28;5210;-60
2024/04/05 08:38:15;;;;;;;;;;;;;;;;;;5008837;28;1106;-61
2024/04/05 08:40:40;;;;;;;;;;;;;;;;;;5005007;28;4548;-61
2024/04/05 08:43:06;;;;;;;;;;;;;;;;;;5007082;28;4960;-61
2024/04/05 08:45:31;;;;;;;;;;;;;;;;;;5006262;28;5181;-61
2024/04/05 08:47:56;;;;;;;;;;;;;;;;;;4990384;28;5111;-61
2024/04/05 08:50:22;;;;;;;;;;;;;;;;;;5006184;28;3509;-62
2024/04/05 08:52:47;;;;;;;;;;;;;;;;;;5006144;28;4470;-61
2024/04/05 08:55:13;;;;;;;;;;;;;;;;;;5006438;28;5168;-61
2024/04/05 08:57:39;;;;;;;;;;;;;;;;;;5007813;28;5093;-61
2024/04/05 09:00:06;;;;;;;;;;;;;;;;;;5006392;28;5057;-60
2024/04/05 09:02:31;;;;;;;;;;;;;;;;;;5008183;28;1973;-61
2024/04/05 09:04:56;;;;;;;;;;;;;;;;;;5006439;28;4907;-61
2024/04/05 09:07:22;;;;;;;;;;;;;;;;;;5008839;28;5073;-61
2024/04/05 09:09:47;;;;;;;;;;;;;;;;;;5005616;28;4566;-61
2024/04/05 09:12:21;;;;;;;;;;;;;;;;;;5007525;28;5091;-61
2024/04/05 09:14:56;;;;;;;;;;;;;;;;;;5006799;28;5073;-61
2024/04/05 09:17:21;;;;;;;;;;;;;;;;;;5006700;28;3484;-61
2024/04/05 09:19:46;;;;;;;;;;;;;;;;;;5006438;28;5024;-61
2024/04/05 09:22:19;;;;;;;;;;;;;;;;;;5006254;28;4949;-61
2024/04/05 09:24:45;;;;;;;;;;;;;;;;;;5007085;28;4573;-61
2024/04/05 09:27:10;;;;;;;;;;;;;;;;;;5006471;28;4722;-61
2024/04/05 09:29:36;;;;;;;;;;;;;;;;;;5005328;28;3434;-61
2024/04/05 09:32:01;;;;;;;;;;;;;;;;;;5005236;28;4849;-60
2024/04/05 09:34:28;;;;;;;;;;;;;;;;;;5006615;28;5110;-61
2024/04/05 09:36:54;;;;;;;;;;;;;;;;;;5007727;28;5280;-61
2024/04/05 09:39:21;;;;;;;;;;;;;;;;;;5004389;28;4541;-60
2024/04/05 09:41:46;;;;;;;;;;;;;;;;;;5007053;28;5038;-61
2024/04/05 09:44:11;;;;;;;;;;;;;;;;;;5005918;28;2336;-61
2024/04/05 09:46:37;;;;;;;;;;;;;;;;;;4992536;28;5244;-60
2024/04/05 09:49:05;;;;;;;;;;;;;;;;;;5004762;28;4867;-61
2024/04/05 09:51:44;;;;;;;;;;;;;;;;;;5006509;28;4710;-61
2024/04/05 09:54:10;;;;;;;;;;;;;;;;;;5007086;28;4674;-60
2024/04/05 09:56:36;;;;;;;;;;;;;;;;;;5007938;28;1150;-61
2024/04/05 09:59:01;;;;;;;;;;;;;;;;;;4988275;28;4877;-61
2024/04/05 10:01:27;;;;;;;;;;;;;;;;;;5012481;28;4647;-61
2024/04/05 10:03:52;;;;;;;;;;;;;;;;;;5007332;28;5153;-61
2024/04/05 10:06:21;;;;;;;;;;;;;;;;;;4990955;28;5161;-61
2024/04/05 10:08:47;;;;;;;;;;;;;;;;;;5006124;28;4702;-61
2024/04/05 10:11:12;;;;;;;;;;;;;;;;;;5006041;28;1173;-61
2024/04/05 10:13:38;;;;;;;;;;;;;;;;;;5007461;28;4963;-60
2024/04/05 10:16:04;;;;;;;;;;;;;;;;;;5004352;28;5009;-61
2024/04/05 10:18:30;;;;;;;;;;;;;;;;;;5002744;28;4570;-61
2024/04/05 10:21:13;;;;;;;;;;;;;;;;;;5002307;28;5345;-61
2024/04/05 10:23:39;;;;;;;;;;;;;;;;;;4987931;28;1196;-60
2024/04/05 10:26:11;;;;;;;;;;;;;;;;;;4986816;28;4782;-60
2024/04/05 10:28:37;;;;;;;;;;;;;;;;;;4987820;28;4463;-61
2024/04/05 10:31:02;;;;;;;;;;;;;;;;;;4987999;28;5302;-60
2024/04/05 10:33:29;;;;;;;;;;;;;;;;;;5009041;28;5274;-61
2024/04/05 10:35:58;;;;;;;;;;;;;;;;;;4988765;28;4694;-60
2024/04/05 10:38:23;;;;;;;;;;;;;;;;;;4998762;28;1295;-61
2024/04/05 10:40:58;;;;;;;;;;;;;;;;;;4989799;28;4478;-60
2024/04/05 10:43:24;;;;;;;;;;;;;;;;;;4994825;28;4663;-61
2024/04/05 10:45:53;;;;;;;;;;;;;;;;;;4989376;28;4768;-60
2024/04/05 10:48:19;;;;;;;;;;;;;;;;;;4991691;28;5221;-61
2024/04/05 10:50:44;;;;;;;;;;;;;;;;;;4988242;28;5272;-61
2024/04/05 10:53:14;;;;;;;;;;;;;;;;;;4998374;28;1090;-61
2024/04/05 10:55:39;;;;;;;;;;;;;;;;;;5005244;28;4971;-61
2024/04/05 10:58:05;;;;;;;;;;;;;;;;;;5002347;28;6250;-61
2024/04/05 11:00:32;;;;;;;;;;;;;;;;;;4990025;28;5039;-61
2024/04/05 11:02:57;;;;;;;;;;;;;;;;;;4986108;28;4634;-60
2024/04/05 11:05:23;;;;;;;;;;;;;;;;;;4990602;28;970;-61
2024/04/05 11:07:56;;;;;;;;;;;;;;;;;;4989757;28;5057;-60
2024/04/05 11:10:21;;;;;;;;;;;;;;;;;;4988956;28;4495;-62
2024/04/05 11:12:47;;;;;;;;;;;;;;;;;;4990803;28;4953;-61
2024/04/05 11:15:15;;;;;;;;;;;;;;;;;;5003469;28;4567;-61
2024/04/05 11:17:40;;;;;;;;;;;;;;;;;;4994470;28;1356;-61
2024/04/05 11:20:09;;;;;;;;;;;;;;;;;;5008085;28;5104;-61
2024/04/05 11:22:35;;;;;;;;;;;;;;;;;;4989967;28;5428;-60
2024/04/05 11:25:00;;;;;;;;;;;;;;;;;;5009343;28;5266;-62
2024/04/05 11:27:29;;;;;;;;;;;;;;;;;;5009353;28;5986;-61
2024/04/05 11:29:54;;;;;;;;;;;;;;;;;;5008392;28;5402;-61
2024/04/05 11:32:31;;;;;;;;;;;;;;;;;;5010080;28;1114;-61
2024/04/05 11:34:57;;;;;;;;;;;;;;;;;;5009100;28;4634;-61
2024/04/05 11:37:23;;;;;;;;;;;;;;;;;;5007800;28;4483;-61
2024/04/05 11:39:48;;;;;;;;;;;;;;;;;;5006245;28;4759;-61
2024/04/05 11:42:13;;;;;;;;;;;;;;;;;;5008181;28;4932;-61
2024/04/05 11:44:39;;;;;;;;;;;;;;;;;;5011064;28;3396;-61
2024/04/05 11:47:04;;;;;;;;;;;;;;;;;;5008829;28;5224;-60
2024/04/05 11:49:30;;;;;;;;;;;;;;;;;;5008204;28;4551;-61
2024/04/05 11:51:55;;;;;;;;;;;;;;;;;;5008894;28;4663;-61
2024/04/05 11:54:21;;;;;;;;;;;;;;;;;;5013364;28;4589;-61
2024/04/05 11:56:46;;;;;;;;;;;;;;;;;;5009208;28;5968;-61
2024/04/05 11:59:11;;;;;;;;;;;;;;;;;;5008013;28;3523;-61
2024/04/05 12:01:37;;;;;;;;;;;;;;;;;;5006959;28;5024;-61
2024/04/05 12:04:02;;;;;;;;;;;;;;;;;;5010034;28;5063;-61
2024/04/05 12:06:27;;;;;;;;;;;;;;;;;;5007228;28;5006;-61
2024/04/05 12:08:53;;;;;;;;;;;;;;;;;;5006897;28;5492;-61
2024/04/05 12:11:18;;;;;;;;;;;;;;;;;;5010573;28;1078;-61
2024/04/05 12:13:46;;;;;;;;;;;;;;;;;;5007631;28;4482;-61
2024/04/05 12:16:11;;;;;;;;;;;;;;;;;;5007686;28;5043;-61
2024/04/05 12:18:38;;;;;;;;;;;;;;;;;;5008023;28;4594;-60
2024/04/05 12:21:03;;;;;;;;;;;;;;;;;;5008348;28;4688;-61
2024/04/05 12:23:28;;;;;;;;;;;;;;;;;;5008092;28;3348;-61
2024/04/05 12:25:55;;;;;;;;;;;;;;;;;;5008291;28;4457;-61
2024/04/05 12:28:20;;;;;;;;;;;;;;;;;;5007292;28;5100;-61
2024/04/05 12:30:45;;;;;;;;;;;;;;;;;;5008166;28;5119;-62
2024/04/05 12:33:11;;;;;;;;;;;;;;;;;;5006635;28;5157;-61
2024/04/05 12:35:36;;;;;;;;;;;;;;;;;;5008187;28;3054;-61
2024/04/05 12:38:01;;;;;;;;;;;;;;;;;;5008325;28;4978;-61
2024/04/05 12:40:39;;;;;;;;;;;;;;;;;;5006334;28;4482;-61
2024/04/05 12:43:06;;;;;;;;;;;;;;;;;;5007483;28;5066;-60
2024/04/05 12:45:31;;;;;;;;;;;;;;;;;;4998069;28;4661;-61
2024/04/05 12:47:56;;;;;;;;;;;;;;;;;;5010773;28;4809;-61
2024/04/05 12:50:23;;;;;;;;;;;;;;;;;;5010269;28;2120;-61
2024/04/05 12:52:49;;;;;;;;;;;;;;;;;;5007200;28;5004;-61
2024/04/05 12:55:15;;;;;;;;;;;;;;;;;;5006719;28;4636;-61
2024/04/05 12:57:40;;;;;;;;;;;;;;;;;;5006088;28;5236;-61
2024/04/05 13:00:06;;;;;;;;;;;;;;;;;;5007754;28;4516;-61
2024/04/05 13:02:31;;;;;;;;;;;;;;;;;;5007033;28;3453;-60
2024/04/05 13:04:57;;;;;;;;;;;;;;;;;;5008015;28;5076;-61
2024/04/05 13:07:23;;;;;;;;;;;;;;;;;;5006334;28;4958;-61
2024/04/05 13:09:48;;;;;;;;;;;;;;;;;;5008469;28;4666;-61
2024/04/05 13:12:13;;;;;;;;;;;;;;;;;;5005773;28;5155;-60
2024/04/05 13:14:39;;;;;;;;;;;;;;;;;;5003071;28;3475;-61
2024/04/05 13:17:04;;;;;;;;;;;;;;;;;;5005995;28;5023;-61
2024/04/05 13:19:29;;;;;;;;;;;;;;;;;;5009800;28;5094;-61
2024/04/05 13:21:55;;;;;;;;;;;;;;;;;;4991678;28;4561;-61
2024/04/05 13:24:21;;;;;;;;;;;;;;;;;;5006388;28;5573;-61
2024/04/05 13:26:46;;;;;;;;;;;;;;;;;;5001607;28;5049;-60
2024/04/05 13:29:12;;;;;;;;;;;;;;;;;;5004381;28;3522;-60
2024/04/05 13:31:37;;;;;;;;;;;;;;;;;;5007482;28;4891;-60
2024/04/05 13:34:06;;;;;;;;;;;;;;;;;;5006672;28;4732;-61
2024/04/05 13:36:31;;;;;;;;;;;;;;;;;;5007380;28;5084;-61
2024/04/05 13:38:57;;;;;;;;;;;;;;;;;;5005291;28;5129;-60
2024/04/05 13:41:22;;;;;;;;;;;;;;;;;;5004429;28;3439;-61
2024/04/05 13:43:48;;;;;;;;;;;;;;;;;;5007514;28;5064;-61
2024/04/05 13:46:16;;;;;;;;;;;;;;;;;;5006874;28;4564;-61
2024/04/05 13:48:53;;;;;;;;;;;;;;;;;;4982043;28;5207;-63
2024/04/05 13:51:26;;;;;;;;;;;;;;;;;;4988428;28;5063;-63
2024/04/05 13:53:54;;;;;;;;;;;;;;;;;;4991685;28;4582;-64
2024/04/05 13:56:19;;;;;;;;;;;;;;;;;;5003488;28;3673;-64
2024/04/05 13:58:45;;;;;;;;;;;;;;;;;;5001163;28;5618;-63
2024/04/05 14:01:10;;;;;;;;;;;;;;;;;;5005306;28;4721;-63
2024/04/05 14:03:38;;;;;;;;;;;;;;;;;;5002811;28;5102;-62
2024/04/05 14:06:07;;;;;;;;;;;;;;;;;;5005984;28;4964;-62
2024/04/05 14:08:33;;;;;;;;;;;;;;;;;;4997573;28;3591;-66
2024/04/05 14:10:58;;;;;;;;;;;;;;;;;;5007538;28;4492;-62
2024/04/05 14:13:24;;;;;;;;;;;;;;;;;;4994396;28;4537;-64
2024/04/05 14:16:05;;;;;;;;;;;;;;;;;;5007468;28;5112;-64
2024/04/05 14:18:31;;;;;;;;;;;;;;;;;;5008269;28;5133;-63
2024/04/05 14:20:56;;;;;;;;;;;;;;;;;;5012560;28;4884;-63
2024/04/05 14:23:22;;;;;;;;;;;;;;;;;;4990653;28;3623;-65
2024/04/05 14:25:48;;;;;;;;;;;;;;;;;;5009617;28;4617;-64
2024/04/05 14:28:13;;;;;;;;;;;;;;;;;;5008496;28;5290;-67
2024/04/05 14:30:41;;;;;;;;;;;;;;;;;;5009331;28;4522;-69
2024/04/05 14:33:06;;;;;;;;;;;;;;;;;;5010883;28;4483;-69
2024/04/05 14:35:32;;;;;;;;;;;;;;;;;;4992029;28;3518;-69
2024/04/05 14:37:57;;;;;;;;;;;;;;;;;;5010433;28;4974;-69
2024/04/05 14:40:23;;;;;;;;;;;;;;;;;;5008087;28;5014;-68
2024/04/05 14:42:48;;;;;;;;;;;;;;;;;;5010209;28;5456;-67
2024/04/05 14:45:13;;;;;;;;;;;;;;;;;;5008173;28;5108;-63
2024/04/05 14:47:39;;;;;;;;;;;;;;;;;;4998048;28;3836;-62
2024/04/05 14:50:12;;;;;;;;;;;;;;;;;;5001494;28;4895;-62
2024/04/05 14:52:37;;;;;;;;;;;;;;;;;;5000432;28;4588;-61
2024/04/05 14:55:08;;;;;;;;;;;;;;;;;;5006020;28;5199;-62
2024/04/05 14:57:34;;;;;;;;;;;;;;;;;;5000925;28;5596;-60
2024/04/05 14:59:59;;;;;;;;;;;;;;;;;;5005482;28;4636;-63
2024/04/05 15:02:24;;;;;;;;;;;;;;;;;;5006093;28;3636;-63
2024/04/05 15:04:50;;;;;;;;;;;;;;;;;;5009801;28;4556;-63
2024/04/05 15:07:15;;;;;;;;;;;;;;;;;;5010400;28;4545;-64
2024/04/05 15:09:40;;;;;;;;;;;;;;;;;;5008019;28;4904;-64
2024/04/05 15:12:06;;;;;;;;;;;;;;;;;;5002990;28;4586;-64
2024/04/05 15:14:32;;;;;;;;;;;;;;;;;;4993879;28;3565;-63
2024/04/05 15:16:57;;;;;;;;;;;;;;;;;;5008510;28;5096;-63
2024/04/05 15:19:22;;;;;;;;;;;;;;;;;;5010097;28;5090;-62
2024/04/05 15:21:48;;;;;;;;;;;;;;;;;;5007085;28;5165;-63
2024/04/05 15:24:14;;;;;;;;;;;;;;;;;;5005525;28;5439;-64
2024/04/05 15:26:40;;;;;;;;;;;;;;;;;;5009685;28;1203;-62
2024/04/05 15:29:05;;;;;;;;;;;;;;;;;;5007645;28;4555;-63
2024/04/05 15:31:33;;;;;;;;;;;;;;;;;;5003474;28;4781;-63
2024/04/05 15:33:59;;;;;;;;;;;;;;;;;;5008831;28;4970;-62
2024/04/05 15:36:24;;;;;;;;;;;;;;;;;;5007550;28;4808;-63
2024/04/05 15:38:50;;;;;;;;;;;;;;;;;;5008265;28;4983;-62
2024/04/05 15:41:16;;;;;;;;;;;;;;;;;;5002685;28;3554;-62
2024/04/05 15:43:42;;;;;;;;;;;;;;;;;;5007721;28;4918;-63
2024/04/05 15:46:11;;;;;;;;;;;;;;;;;;5003812;28;5374;-62
2024/04/05 15:48:37;;;;;;;;;;;;;;;;;;5007995;28;4728;-62
2024/04/05 15:51:04;;;;;;;;;;;;;;;;;;5008398;28;5101;-62
2024/04/05 15:53:29;;;;;;;;;;;;;;;;;;5004223;28;1484;-62
2024/04/05 15:55:55;;;;;;;;;;;;;;;;;;5006099;28;4667;-62
2024/04/05 15:58:21;;;;;;;;;;;;;;;;;;5001640;28;5225;-61
2024/04/05 16:00:49;;;;;;;;;;;;;;;;;;5003772;28;5351;-60
2024/04/05 16:03:15;;;;;;;;;;;;;;;;;;5006613;28;5188;-60
2024/04/05 16:05:41;;;;;;;;;;;;;;;;;;4989599;28;4063;-61
2024/04/05 16:08:06;;;;;;;;;;;;;;;;;;5005288;28;5808;-61
2024/04/05 16:10:31;;;;;;;;;;;;;;;;;;4998492;28;5029;-61
2024/04/05 16:12:57;;;;;;;;;;;;;;;;;;5005967;28;5060;-60
2024/04/05 16:15:23;;;;;;;;;;;;;;;;;;5006527;28;5325;-60
2024/04/05 16:17:48;;;;;;;;;;;;;;;;;;5009154;28;5253;-61
2024/04/05 16:20:13;;;;;;;;;;;;;;;;;;5008276;28;3334;-60
2024/04/05 16:22:43;;;;;;;;;;;;;;;;;;5008460;28;4936;-60
2024/04/05 16:25:09;;;;;;;;;;;;;;;;;;5008095;28;4692;-60
2024/04/05 16:27:34;;;;;;;;;;;;;;;;;;5006436;28;5167;-60
2024/04/05 16:30:06;;;;;;;;;;;;;;;;;;5008168;28;5115;-60
2024/04/05 16:32:41;;;;;;;;;;;;;;;;;;5007464;28;1394;-60
2024/04/05 16:35:09;;;;;;;;;;;;;;;;;;5012989;28;4637;-60
2024/04/05 16:37:38;;;;;;;;;;;;;;;;;;5008233;28;5020;-60
2024/04/05 16:40:08;;;;;;;;;;;;;;;;;;5002538;28;5013;-60
2024/04/05 16:42:33;;;;;;;;;;;;;;;;;;5006924;28;4811;-60
2024/04/05 16:44:58;;;;;;;;;;;;;;;;;;5007737;28;4721;-60
2024/04/05 16:47:24;;;;;;;;;;;;;;;;;;5007002;28;1746;-60
2024/04/05 16:49:49;;;;;;;;;;;;;;;;;;5000450;28;5050;-60
2024/04/05 16:52:14;;;;;;;;;;;;;;;;;;5000811;28;5121;-60
2024/04/05 16:54:44;;;;;;;;;;;;;;;;;;5006433;28;4764;-59